sensor_id;sensor_type;location;lat;lon;timestamp;temperature;humidity
9975;DHT22;5028;50.974;4.968;2023-03-26T00:02:26;8.70;99.90
9975;DHT22;5028;50.974;4.968;2023-03-26T00:04:55;8.70;99.90
9975;DHT22;5028;50.974;4.968;2023-03-26T00:07:32;8.70;99.90
9975;DHT22;5028;50.974;4.968;2023-03-26T00:10:01;8.70;99.90
9975;DHT22;5028;50.974;4.968;2023-03-26T00:12:49;8.70;99.90
9975;DHT22;5028;50.974;4.968;2023-03-26T00:15:24;8.70;99.90
9975;DHT22;5028;50.974;4.968;2023-03-26T00:17:52;8.70;99.90
9975;DHT22;5028;50.974;4.968;2023-03-26T00:20:29;8.70;99.90
9975;DHT22;5028;50.974;4.968;2023-03-26T00:23:06;8.70;99.90
9975;DHT22;5028;50.974;4.968;2023-03-26T00:25:37;8.70;99.90
9975;DHT22;5028;50.974;4.968;2023-03-26T00:28:15;8.70;99.90
9975;DHT22;5028;50.974;4.968;2023-03-26T00:30:47;8.80;99.90
9975;DHT22;5028;50.974;4.968;2023-03-26T00:33:22;8.80;99.90
9975;DHT22;5028;50.974;4.968;2023-03-26T00:35:52;8.80;99.90
9975;DHT22;5028;50.974;4.968;2023-03-26T00:38:25;8.80;99.90
9975;DHT22;5028;50.974;4.968;2023-03-26T00:41:00;8.80;99.90
9975;DHT22;5028;50.974;4.968;2023-03-26T00:43:33;8.80;99.90
9975;DHT22;5028;50.974;4.968;2023-03-26T00:46:09;8.80;99.90
9975;DHT22;5028;50.974;4.968;2023-03-26T00:48:38;8.80;99.90
9975;DHT22;5028;50.974;4.968;2023-03-26T00:51:16;8.90;99.90
9975;DHT22;5028;50.974;4.968;2023-03-26T00:53:52;8.90;99.90
9975;DHT22;5028;50.974;4.968;2023-03-26T00:56:21;8.90;99.90
9975;DHT22;5028;50.974;4.968;2023-03-26T00:58:56;8.90;99.90
9975;DHT22;5028;50.974;4.968;2023-03-26T01:01:32;8.90;99.90
9975;DHT22;5028;50.974;4.968;2023-03-26T01:04:24;8.90;99.90
9975;DHT22;5028;50.974;4.968;2023-03-26T01:07:10;8.90;99.90
9975;DHT22;5028;50.974;4.968;2023-03-26T01:09:43;8.90;99.90
9975;DHT22;5028;50.974;4.968;2023-03-26T01:12:24;8.90;99.90
9975;DHT22;5028;50.974;4.968;2023-03-26T01:15:00;8.90;99.90
9975;DHT22;5028;50.974;4.968;2023-03-26T01:17:30;8.90;99.90
9975;DHT22;5028;50.974;4.968;2023-03-26T01:20:12;8.90;99.90
9975;DHT22;5028;50.974;4.968;2023-03-26T01:22:44;8.90;99.90
9975;DHT22;5028;50.974;4.968;2023-03-26T01:25:22;8.90;99.90
9975;DHT22;5028;50.974;4.968;2023-03-26T01:27:54;8.90;99.90
9975;DHT22;5028;50.974;4.968;2023-03-26T01:30:35;8.90;99.90
9975;DHT22;5028;50.974;4.968;2023-03-26T01:33:19;8.90;99.90
9975;DHT22;5028;50.974;4.968;2023-03-26T01:35:55;8.90;99.90
9975;DHT22;5028;50.974;4.968;2023-03-26T01:38:34;8.90;99.90
9975;DHT22;5028;50.974;4.968;2023-03-26T01:41:08;8.90;99.90
9975;DHT22;5028;50.974;4.968;2023-03-26T01:43:47;8.90;99.90
9975;DHT22;5028;50.974;4.968;2023-03-26T01:46:20;8.80;99.90
9975;DHT22;5028;50.974;4.968;2023-03-26T01:48:57;8.80;99.90
9975;DHT22;5028;50.974;4.968;2023-03-26T01:51:28;8.80;99.90
9975;DHT22;5028;50.974;4.968;2023-03-26T01:54:05;8.80;99.90
9975;DHT22;5028;50.974;4.968;2023-03-26T01:56:44;8.80;99.90
9975;DHT22;5028;50.974;4.968;2023-03-26T01:59:32;8.80;99.90
9975;DHT22;5028;50.974;4.968;2023-03-26T02:02:14;8.70;99.90
9975;DHT22;5028;50.974;4.968;2023-03-26T02:04:50;8.70;99.90
9975;DHT22;5028;50.974;4.968;2023-03-26T02:07:31;8.70;99.90
9975;DHT22;5028;50.974;4.968;2023-03-26T02:10:07;8.70;99.90
9975;DHT22;5028;50.974;4.968;2023-03-26T02:12:49;8.70;99.90
9975;DHT22;5028;50.974;4.968;2023-03-26T02:15:18;8.70;99.90
9975;DHT22;5028;50.974;4.968;2023-03-26T02:17:53;8.70;99.90
9975;DHT22;5028;50.974;4.968;2023-03-26T02:20:22;8.60;99.90
9975;DHT22;5028;50.974;4.968;2023-03-26T02:22:58;8.60;99.90
9975;DHT22;5028;50.974;4.968;2023-03-26T02:25:27;8.60;99.90
9975;DHT22;5028;50.974;4.968;2023-03-26T02:28:04;8.60;99.90
9975;DHT22;5028;50.974;4.968;2023-03-26T02:30:33;8.60;99.90
9975;DHT22;5028;50.974;4.968;2023-03-26T02:33:08;8.60;99.90
9975;DHT22;5028;50.974;4.968;2023-03-26T02:35:41;8.60;99.90
9975;DHT22;5028;50.974;4.968;2023-03-26T02:38:19;8.60;99.90
9975;DHT22;5028;50.974;4.968;2023-03-26T02:40:51;8.60;99.90
9975;DHT22;5028;50.974;4.968;2023-03-26T02:43:28;8.60;99.90
9975;DHT22;5028;50.974;4.968;2023-03-26T02:45:57;8.60;99.90
9975;DHT22;5028;50.974;4.968;2023-03-26T02:48:33;8.60;99.90
9975;DHT22;5028;50.974;4.968;2023-03-26T02:51:02;8.50;99.90
9975;DHT22;5028;50.974;4.968;2023-03-26T02:53:38;8.50;99.90
9975;DHT22;5028;50.974;4.968;2023-03-26T02:56:08;8.50;99.90
9975;DHT22;5028;50.974;4.968;2023-03-26T02:58:46;8.50;99.90
9975;DHT22;5028;50.974;4.968;2023-03-26T03:01:14;8.50;99.90
9975;DHT22;5028;50.974;4.968;2023-03-26T03:03:57;8.50;99.90
9975;DHT22;5028;50.974;4.968;2023-03-26T03:06:40;8.40;99.90
9975;DHT22;5028;50.974;4.968;2023-03-26T03:09:17;8.40;99.90
9975;DHT22;5028;50.974;4.968;2023-03-26T03:11:46;8.40;99.90
9975;DHT22;5028;50.974;4.968;2023-03-26T03:14:22;8.40;99.90
9975;DHT22;5028;50.974;4.968;2023-03-26T03:16:50;8.40;99.90
9975;DHT22;5028;50.974;4.968;2023-03-26T03:19:26;8.40;99.90
9975;DHT22;5028;50.974;4.968;2023-03-26T03:21:55;8.40;99.90
9975;DHT22;5028;50.974;4.968;2023-03-26T03:24:30;8.40;99.90
9975;DHT22;5028;50.974;4.968;2023-03-26T03:27:06;8.40;99.90
9975;DHT22;5028;50.974;4.968;2023-03-26T03:29:36;8.40;99.90
9975;DHT22;5028;50.974;4.968;2023-03-26T03:32:11;8.40;99.90
9975;DHT22;5028;50.974;4.968;2023-03-26T03:34:40;8.40;99.90
9975;DHT22;5028;50.974;4.968;2023-03-26T03:37:15;8.40;99.90
9975;DHT22;5028;50.974;4.968;2023-03-26T03:39:44;8.30;99.90
9975;DHT22;5028;50.974;4.968;2023-03-26T03:42:19;8.30;99.90
9975;DHT22;5028;50.974;4.968;2023-03-26T03:44:50;8.30;99.90
9975;DHT22;5028;50.974;4.968;2023-03-26T03:47:25;8.30;99.90
9975;DHT22;5028;50.974;4.968;2023-03-26T03:49:53;8.40;99.90
9975;DHT22;5028;50.974;4.968;2023-03-26T03:52:29;8.30;99.90
9975;DHT22;5028;50.974;4.968;2023-03-26T03:54:58;8.30;99.90
9975;DHT22;5028;50.974;4.968;2023-03-26T03:57:33;8.40;99.90
9975;DHT22;5028;50.974;4.968;2023-03-26T04:00:04;8.30;99.90
9975;DHT22;5028;50.974;4.968;2023-03-26T04:02:43;8.30;99.90
9975;DHT22;5028;50.974;4.968;2023-03-26T04:05:25;8.30;99.90
9975;DHT22;5028;50.974;4.968;2023-03-26T04:07:53;8.30;99.90
9975;DHT22;5028;50.974;4.968;2023-03-26T04:10:28;8.30;99.90
9975;DHT22;5028;50.974;4.968;2023-03-26T04:12:57;8.40;99.90
9975;DHT22;5028;50.974;4.968;2023-03-26T04:15:34;8.30;99.90
9975;DHT22;5028;50.974;4.968;2023-03-26T04:18:03;8.30;99.90
9975;DHT22;5028;50.974;4.968;2023-03-26T04:20:43;8.30;99.90
9975;DHT22;5028;50.974;4.968;2023-03-26T04:23:18;8.30;99.90
9975;DHT22;5028;50.974;4.968;2023-03-26T04:25:50;8.30;99.90
9975;DHT22;5028;50.974;4.968;2023-03-26T04:28:28;8.30;99.90
9975;DHT22;5028;50.974;4.968;2023-03-26T04:31:00;8.30;99.90
9975;DHT22;5028;50.974;4.968;2023-03-26T04:33:35;8.30;99.90
9975;DHT22;5028;50.974;4.968;2023-03-26T04:36:12;8.30;99.90
9975;DHT22;5028;50.974;4.968;2023-03-26T04:38:43;8.30;99.90
9975;DHT22;5028;50.974;4.968;2023-03-26T04:41:21;8.30;99.90
9975;DHT22;5028;50.974;4.968;2023-03-26T04:43:52;8.30;99.90
9975;DHT22;5028;50.974;4.968;2023-03-26T04:46:29;8.30;99.90
9975;DHT22;5028;50.974;4.968;2023-03-26T04:49:01;8.30;99.90
9975;DHT22;5028;50.974;4.968;2023-03-26T04:51:37;8.40;99.90
9975;DHT22;5028;50.974;4.968;2023-03-26T04:54:15;8.40;99.90
9975;DHT22;5028;50.974;4.968;2023-03-26T04:56:50;8.40;99.90
9975;DHT22;5028;50.974;4.968;2023-03-26T04:59:28;8.30;99.90
9975;DHT22;5028;50.974;4.968;2023-03-26T05:02:04;8.40;99.90
9975;DHT22;5028;50.974;4.968;2023-03-26T05:04:40;8.30;99.90
9975;DHT22;5028;50.974;4.968;2023-03-26T05:07:22;8.30;99.90
9975;DHT22;5028;50.974;4.968;2023-03-26T05:09:58;8.30;99.90
9975;DHT22;5028;50.974;4.968;2023-03-26T05:12:29;8.30;99.90
9975;DHT22;5028;50.974;4.968;2023-03-26T05:15:06;8.30;99.90
9975;DHT22;5028;50.974;4.968;2023-03-26T05:17:36;8.30;99.90
9975;DHT22;5028;50.974;4.968;2023-03-26T05:20:16;8.30;99.90
9975;DHT22;5028;50.974;4.968;2023-03-26T05:22:47;8.30;99.90
9975;DHT22;5028;50.974;4.968;2023-03-26T05:25:23;8.30;99.90
9975;DHT22;5028;50.974;4.968;2023-03-26T05:27:57;8.30;99.90
9975;DHT22;5028;50.974;4.968;2023-03-26T05:30:26;8.30;99.90
9975;DHT22;5028;50.974;4.968;2023-03-26T05:33:03;8.30;99.90
9975;DHT22;5028;50.974;4.968;2023-03-26T05:35:32;8.30;99.90
9975;DHT22;5028;50.974;4.968;2023-03-26T05:38:08;8.30;99.90
9975;DHT22;5028;50.974;4.968;2023-03-26T05:40:44;8.40;99.90
9975;DHT22;5028;50.974;4.968;2023-03-26T05:43:12;8.40;99.90
9975;DHT22;5028;50.974;4.968;2023-03-26T05:45:48;8.40;99.90
9975;DHT22;5028;50.974;4.968;2023-03-26T05:48:24;8.40;99.90
9975;DHT22;5028;50.974;4.968;2023-03-26T05:50:54;8.40;99.90
9975;DHT22;5028;50.974;4.968;2023-03-26T05:53:30;8.40;99.90
9975;DHT22;5028;50.974;4.968;2023-03-26T05:55:59;8.40;99.90
9975;DHT22;5028;50.974;4.968;2023-03-26T05:58:35;8.40;99.90
9975;DHT22;5028;50.974;4.968;2023-03-26T06:01:12;8.40;99.90
9975;DHT22;5028;50.974;4.968;2023-03-26T06:03:45;8.30;99.90
9975;DHT22;5028;50.974;4.968;2023-03-26T06:06:20;8.40;99.90
9975;DHT22;5028;50.974;4.968;2023-03-26T06:08:58;8.30;99.90
9975;DHT22;5028;50.974;4.968;2023-03-26T06:11:34;8.30;99.90
9975;DHT22;5028;50.974;4.968;2023-03-26T06:14:02;8.30;99.90
9975;DHT22;5028;50.974;4.968;2023-03-26T06:16:37;8.20;99.90
9975;DHT22;5028;50.974;4.968;2023-03-26T06:19:07;8.20;99.90
9975;DHT22;5028;50.974;4.968;2023-03-26T06:21:43;8.20;99.90
9975;DHT22;5028;50.974;4.968;2023-03-26T06:24:11;8.20;99.90
9975;DHT22;5028;50.974;4.968;2023-03-26T06:26:48;8.20;99.90
9975;DHT22;5028;50.974;4.968;2023-03-26T06:29:18;8.20;99.90
9975;DHT22;5028;50.974;4.968;2023-03-26T06:31:53;8.10;99.90
9975;DHT22;5028;50.974;4.968;2023-03-26T06:34:46;8.10;99.90
9975;DHT22;5028;50.974;4.968;2023-03-26T06:37:21;8.10;99.90
9975;DHT22;5028;50.974;4.968;2023-03-26T06:39:50;8.20;99.90
9975;DHT22;5028;50.974;4.968;2023-03-26T06:42:24;8.10;99.90
9975;DHT22;5028;50.974;4.968;2023-03-26T06:45:14;8.00;99.90
9975;DHT22;5028;50.974;4.968;2023-03-26T06:47:50;8.10;99.90
9975;DHT22;5028;50.974;4.968;2023-03-26T06:50:20;8.00;99.90
9975;DHT22;5028;50.974;4.968;2023-03-26T06:52:56;8.00;99.90
9975;DHT22;5028;50.974;4.968;2023-03-26T06:55:25;8.00;99.90
9975;DHT22;5028;50.974;4.968;2023-03-26T06:58:00;7.90;99.90
9975;DHT22;5028;50.974;4.968;2023-03-26T07:00:28;8.00;99.90
9975;DHT22;5028;50.974;4.968;2023-03-26T07:03:03;8.00;99.90
9975;DHT22;5028;50.974;4.968;2023-03-26T07:05:41;7.90;99.90
9975;DHT22;5028;50.974;4.968;2023-03-26T07:08:16;7.90;99.90
9975;DHT22;5028;50.974;4.968;2023-03-26T07:10:45;7.90;99.90
9975;DHT22;5028;50.974;4.968;2023-03-26T07:13:21;7.90;99.90
9975;DHT22;5028;50.974;4.968;2023-03-26T07:15:50;7.80;99.90
9975;DHT22;5028;50.974;4.968;2023-03-26T07:18:26;7.80;99.90
9975;DHT22;5028;50.974;4.968;2023-03-26T07:20:57;7.70;99.90
9975;DHT22;5028;50.974;4.968;2023-03-26T07:23:33;7.70;99.90
9975;DHT22;5028;50.974;4.968;2023-03-26T07:26:12;7.70;99.90
9975;DHT22;5028;50.974;4.968;2023-03-26T07:28:58;7.70;99.90
9975;DHT22;5028;50.974;4.968;2023-03-26T07:31:35;7.60;99.90
9975;DHT22;5028;50.974;4.968;2023-03-26T07:34:26;7.60;99.90
9975;DHT22;5028;50.974;4.968;2023-03-26T07:37:02;7.60;99.90
9975;DHT22;5028;50.974;4.968;2023-03-26T07:39:43;7.70;99.90
9975;DHT22;5028;50.974;4.968;2023-03-26T07:42:24;7.70;99.90
9975;DHT22;5028;50.974;4.968;2023-03-26T07:45:13;7.70;99.90
9975;DHT22;5028;50.974;4.968;2023-03-26T07:47:44;7.70;99.90
9975;DHT22;5028;50.974;4.968;2023-03-26T07:50:26;7.70;99.90
9975;DHT22;5028;50.974;4.968;2023-03-26T07:52:57;7.80;99.90
9975;DHT22;5028;50.974;4.968;2023-03-26T07:55:33;7.80;99.90
9975;DHT22;5028;50.974;4.968;2023-03-26T07:58:14;7.80;99.90
9975;DHT22;5028;50.974;4.968;2023-03-26T08:00:57;7.80;99.90
9975;DHT22;5028;50.974;4.968;2023-03-26T08:03:52;7.80;99.90
9975;DHT22;5028;50.974;4.968;2023-03-26T08:06:55;7.70;99.90
9975;DHT22;5028;50.974;4.968;2023-03-26T08:09:39;7.60;99.90
9975;DHT22;5028;50.974;4.968;2023-03-26T08:12:20;7.50;99.90
9975;DHT22;5028;50.974;4.968;2023-03-26T08:14:57;7.50;99.90
9975;DHT22;5028;50.974;4.968;2023-03-26T08:17:37;7.50;99.90
9975;DHT22;5028;50.974;4.968;2023-03-26T08:20:18;7.50;99.90
9975;DHT22;5028;50.974;4.968;2023-03-26T08:23:04;7.40;99.90
9975;DHT22;5028;50.974;4.968;2023-03-26T08:25:45;7.30;99.90
9975;DHT22;5028;50.974;4.968;2023-03-26T08:28:33;7.30;99.90
9975;DHT22;5028;50.974;4.968;2023-03-26T08:31:07;7.30;99.90
9975;DHT22;5028;50.974;4.968;2023-03-26T08:33:44;7.30;99.90
9975;DHT22;5028;50.974;4.968;2023-03-26T08:36:12;7.30;99.90
9975;DHT22;5028;50.974;4.968;2023-03-26T08:38:48;7.20;99.90
9975;DHT22;5028;50.974;4.968;2023-03-26T08:41:58;7.20;99.90
9975;DHT22;5028;50.974;4.968;2023-03-26T08:45:19;7.20;99.90
9975;DHT22;5028;50.974;4.968;2023-03-26T08:48:17;7.20;99.90
9975;DHT22;5028;50.974;4.968;2023-03-26T08:54:26;7.10;99.90
9975;DHT22;5028;50.974;4.968;2023-03-26T08:57:38;7.10;99.90
9975;DHT22;5028;50.974;4.968;2023-03-26T09:00:24;7.00;99.90
9975;DHT22;5028;50.974;4.968;2023-03-26T09:06:47;6.90;99.90
9975;DHT22;5028;50.974;4.968;2023-03-26T09:16:32;6.90;99.90
9975;DHT22;5028;50.974;4.968;2023-03-26T09:25:49;6.80;99.90
9975;DHT22;5028;50.974;4.968;2023-03-26T09:28:44;6.80;99.90
9975;DHT22;5028;50.974;4.968;2023-03-26T09:34:43;6.80;99.90
9975;DHT22;5028;50.974;4.968;2023-03-26T09:37:35;6.70;99.90
9975;DHT22;5028;50.974;4.968;2023-03-26T09:40:31;6.70;99.90
9975;DHT22;5028;50.974;4.968;2023-03-26T09:46:36;6.70;99.90
9975;DHT22;5028;50.974;4.968;2023-03-26T09:49:27;6.70;99.90
9975;DHT22;5028;50.974;4.968;2023-03-26T09:52:30;6.70;99.90
9975;DHT22;5028;50.974;4.968;2023-03-26T09:55:27;6.70;99.90
9975;DHT22;5028;50.974;4.968;2023-03-26T10:01:14;6.80;99.90
9975;DHT22;5028;50.974;4.968;2023-03-26T10:03:57;6.80;99.90
9975;DHT22;5028;50.974;4.968;2023-03-26T10:06:49;6.80;99.90
9975;DHT22;5028;50.974;4.968;2023-03-26T10:10:00;6.80;99.90
9975;DHT22;5028;50.974;4.968;2023-03-26T10:12:39;6.80;99.90
9975;DHT22;5028;50.974;4.968;2023-03-26T10:15:23;6.90;99.90
9975;DHT22;5028;50.974;4.968;2023-03-26T10:18:22;6.90;99.90
9975;DHT22;5028;50.974;4.968;2023-03-26T10:21:15;7.00;99.90
9975;DHT22;5028;50.974;4.968;2023-03-26T10:24:03;7.00;99.90
9975;DHT22;5028;50.974;4.968;2023-03-26T10:30:02;7.00;99.90
9975;DHT22;5028;50.974;4.968;2023-03-26T10:32:44;7.00;99.90
9975;DHT22;5028;50.974;4.968;2023-03-26T10:35:27;6.90;99.90
9975;DHT22;5028;50.974;4.968;2023-03-26T10:38:13;6.90;99.90
9975;DHT22;5028;50.974;4.968;2023-03-26T10:40:57;7.00;99.90
9975;DHT22;5028;50.974;4.968;2023-03-26T10:50:01;7.00;99.90
9975;DHT22;5028;50.974;4.968;2023-03-26T10:52:38;7.00;99.90
9975;DHT22;5028;50.974;4.968;2023-03-26T10:55:14;7.00;99.90
9975;DHT22;5028;50.974;4.968;2023-03-26T10:57:52;7.00;99.90
9975;DHT22;5028;50.974;4.968;2023-03-26T11:00:29;7.00;99.90
9975;DHT22;5028;50.974;4.968;2023-03-26T11:03:29;7.00;99.90
9975;DHT22;5028;50.974;4.968;2023-03-26T11:06:29;7.00;99.90
9975;DHT22;5028;50.974;4.968;2023-03-26T11:09:09;7.00;99.90
9975;DHT22;5028;50.974;4.968;2023-03-26T11:11:54;7.00;99.90
9975;DHT22;5028;50.974;4.968;2023-03-26T11:14:28;7.00;99.90
9975;DHT22;5028;50.974;4.968;2023-03-26T11:17:12;7.00;99.90
9975;DHT22;5028;50.974;4.968;2023-03-26T11:20:12;7.00;99.90
9975;DHT22;5028;50.974;4.968;2023-03-26T11:22:57;7.00;99.90
9975;DHT22;5028;50.974;4.968;2023-03-26T11:25:47;7.00;99.90
9975;DHT22;5028;50.974;4.968;2023-03-26T11:28:34;7.10;99.90
9975;DHT22;5028;50.974;4.968;2023-03-26T11:31:12;7.10;99.90
9975;DHT22;5028;50.974;4.968;2023-03-26T11:33:52;7.10;99.90
9975;DHT22;5028;50.974;4.968;2023-03-26T11:36:28;7.10;99.90
9975;DHT22;5028;50.974;4.968;2023-03-26T11:39:08;7.10;99.90
9975;DHT22;5028;50.974;4.968;2023-03-26T11:41:39;7.10;99.90
9975;DHT22;5028;50.974;4.968;2023-03-26T11:44:20;7.10;99.90
9975;DHT22;5028;50.974;4.968;2023-03-26T11:46:56;7.10;99.90
9975;DHT22;5028;50.974;4.968;2023-03-26T11:49:34;7.10;99.90
9975;DHT22;5028;50.974;4.968;2023-03-26T11:52:09;7.10;99.90
9975;DHT22;5028;50.974;4.968;2023-03-26T11:54:45;7.20;99.90
9975;DHT22;5028;50.974;4.968;2023-03-26T11:57:17;7.20;99.90
9975;DHT22;5028;50.974;4.968;2023-03-26T11:59:57;7.10;99.90
9975;DHT22;5028;50.974;4.968;2023-03-26T12:02:37;7.10;99.90
9975;DHT22;5028;50.974;4.968;2023-03-26T12:05:15;7.20;99.90
9975;DHT22;5028;50.974;4.968;2023-03-26T12:08:03;7.20;99.90
9975;DHT22;5028;50.974;4.968;2023-03-26T12:11:00;7.30;99.90
9975;DHT22;5028;50.974;4.968;2023-03-26T12:13:34;7.20;99.90
9975;DHT22;5028;50.974;4.968;2023-03-26T12:16:13;7.30;99.90
9975;DHT22;5028;50.974;4.968;2023-03-26T12:18:42;7.30;99.90
9975;DHT22;5028;50.974;4.968;2023-03-26T12:21:18;7.40;99.90
9975;DHT22;5028;50.974;4.968;2023-03-26T12:24:04;7.40;99.90
9975;DHT22;5028;50.974;4.968;2023-03-26T12:26:42;7.50;99.90
9975;DHT22;5028;50.974;4.968;2023-03-26T12:29:16;7.50;99.90
9975;DHT22;5028;50.974;4.968;2023-03-26T12:31:54;7.50;99.90
9975;DHT22;5028;50.974;4.968;2023-03-26T12:34:28;7.50;99.90
9975;DHT22;5028;50.974;4.968;2023-03-26T12:37:33;7.40;99.90
9975;DHT22;5028;50.974;4.968;2023-03-26T12:40:27;7.50;99.90
9975;DHT22;5028;50.974;4.968;2023-03-26T12:42:57;7.50;99.90
9975;DHT22;5028;50.974;4.968;2023-03-26T12:45:54;7.50;99.90
9975;DHT22;5028;50.974;4.968;2023-03-26T12:48:52;7.50;99.90
9975;DHT22;5028;50.974;4.968;2023-03-26T12:51:32;7.60;99.90
9975;DHT22;5028;50.974;4.968;2023-03-26T12:54:18;7.60;99.90
9975;DHT22;5028;50.974;4.968;2023-03-26T12:57:01;7.70;99.90
9975;DHT22;5028;50.974;4.968;2023-03-26T12:59:48;7.80;99.90
9975;DHT22;5028;50.974;4.968;2023-03-26T13:02:31;7.70;99.90
9975;DHT22;5028;50.974;4.968;2023-03-26T13:05:19;7.60;99.90
9975;DHT22;5028;50.974;4.968;2023-03-26T13:08:22;7.60;99.90
9975;DHT22;5028;50.974;4.968;2023-03-26T13:11:06;7.70;99.90
9975;DHT22;5028;50.974;4.968;2023-03-26T13:14:07;7.70;99.90
9975;DHT22;5028;50.974;4.968;2023-03-26T13:16:50;7.70;99.90
9975;DHT22;5028;50.974;4.968;2023-03-26T13:19:27;7.70;99.90
9975;DHT22;5028;50.974;4.968;2023-03-26T13:22:16;7.70;99.90
9975;DHT22;5028;50.974;4.968;2023-03-26T13:24:56;7.80;99.90
9975;DHT22;5028;50.974;4.968;2023-03-26T13:27:43;7.90;99.90
9975;DHT22;5028;50.974;4.968;2023-03-26T13:30:25;7.90;99.90
9975;DHT22;5028;50.974;4.968;2023-03-26T13:33:14;8.00;99.90
9975;DHT22;5028;50.974;4.968;2023-03-26T13:35:53;8.00;99.90
9975;DHT22;5028;50.974;4.968;2023-03-26T13:39:04;8.00;99.90
9975;DHT22;5028;50.974;4.968;2023-03-26T13:41:48;8.00;99.90
9975;DHT22;5028;50.974;4.968;2023-03-26T13:44:32;8.00;99.90
9975;DHT22;5028;50.974;4.968;2023-03-26T13:47:10;8.00;99.90
9975;DHT22;5028;50.974;4.968;2023-03-26T13:49:49;8.00;99.90
9975;DHT22;5028;50.974;4.968;2023-03-26T13:52:21;8.00;99.90
9975;DHT22;5028;50.974;4.968;2023-03-26T13:55:17;8.10;99.90
9975;DHT22;5028;50.974;4.968;2023-03-26T13:57:52;8.20;99.90
9975;DHT22;5028;50.974;4.968;2023-03-26T14:00:45;8.20;99.90
9975;DHT22;5028;50.974;4.968;2023-03-26T14:03:28;8.30;99.90
9975;DHT22;5028;50.974;4.968;2023-03-26T14:06:05;8.30;99.90
9975;DHT22;5028;50.974;4.968;2023-03-26T14:08:59;8.30;99.90
9975;DHT22;5028;50.974;4.968;2023-03-26T14:11:43;8.40;99.90
9975;DHT22;5028;50.974;4.968;2023-03-26T14:14:27;8.40;99.90
9975;DHT22;5028;50.974;4.968;2023-03-26T14:16:58;8.30;99.90
9975;DHT22;5028;50.974;4.968;2023-03-26T14:20:01;8.40;99.90
9975;DHT22;5028;50.974;4.968;2023-03-26T14:22:43;8.40;99.90
9975;DHT22;5028;50.974;4.968;2023-03-26T14:25:30;8.50;99.90
9975;DHT22;5028;50.974;4.968;2023-03-26T14:28:09;8.50;99.90
9975;DHT22;5028;50.974;4.968;2023-03-26T14:31:00;8.40;99.90
9975;DHT22;5028;50.974;4.968;2023-03-26T14:33:49;8.40;99.90
9975;DHT22;5028;50.974;4.968;2023-03-26T14:36:56;8.30;99.90
9975;DHT22;5028;50.974;4.968;2023-03-26T14:40:01;8.40;99.90
9975;DHT22;5028;50.974;4.968;2023-03-26T14:42:44;8.30;99.90
9975;DHT22;5028;50.974;4.968;2023-03-26T14:51:40;8.20;99.90
9975;DHT22;5028;50.974;4.968;2023-03-26T14:54:22;8.20;99.90
9975;DHT22;5028;50.974;4.968;2023-03-26T15:04:09;8.30;99.90
9975;DHT22;5028;50.974;4.968;2023-03-26T15:07:20;8.30;99.90
9975;DHT22;5028;50.974;4.968;2023-03-26T15:13:27;8.30;99.90
9975;DHT22;5028;50.974;4.968;2023-03-26T15:16:27;8.40;99.90
9975;DHT22;5028;50.974;4.968;2023-03-26T15:22:52;8.40;99.90
9975;DHT22;5028;50.974;4.968;2023-03-26T15:32:30;8.50;99.90
9975;DHT22;5028;50.974;4.968;2023-03-26T15:35:25;8.50;99.90
9975;DHT22;5028;50.974;4.968;2023-03-26T15:41:32;8.40;99.90
9975;DHT22;5028;50.974;4.968;2023-03-26T15:44:28;8.40;99.90
9975;DHT22;5028;50.974;4.968;2023-03-26T15:47:34;8.40;99.90
9975;DHT22;5028;50.974;4.968;2023-03-26T15:50:14;8.40;99.90
9975;DHT22;5028;50.974;4.968;2023-03-26T15:52:57;8.20;99.90
9975;DHT22;5028;50.974;4.968;2023-03-26T15:55:33;8.10;99.90
9975;DHT22;5028;50.974;4.968;2023-03-26T15:58:16;8.00;99.90
9975;DHT22;5028;50.974;4.968;2023-03-26T16:00:53;7.90;99.90
9975;DHT22;5028;50.974;4.968;2023-03-26T16:03:44;7.80;99.90
9975;DHT22;5028;50.974;4.968;2023-03-26T16:06:26;7.90;99.90
9975;DHT22;5028;50.974;4.968;2023-03-26T16:09:24;7.80;99.90
9975;DHT22;5028;50.974;4.968;2023-03-26T16:11:58;7.70;99.90
9975;DHT22;5028;50.974;4.968;2023-03-26T16:14:42;7.70;99.90
9975;DHT22;5028;50.974;4.968;2023-03-26T16:17:13;7.70;99.90
9975;DHT22;5028;50.974;4.968;2023-03-26T16:20:16;7.80;99.90
9975;DHT22;5028;50.974;4.968;2023-03-26T16:22:55;7.70;99.90
9975;DHT22;5028;50.974;4.968;2023-03-26T16:25:33;7.70;99.90
9975;DHT22;5028;50.974;4.968;2023-03-26T16:28:24;7.80;99.90
9975;DHT22;5028;50.974;4.968;2023-03-26T16:31:27;7.80;99.90
9975;DHT22;5028;50.974;4.968;2023-03-26T16:34:26;7.80;99.90
9975;DHT22;5028;50.974;4.968;2023-03-26T16:37:05;7.80;99.90
9975;DHT22;5028;50.974;4.968;2023-03-26T16:40:31;7.80;99.90
9975;DHT22;5028;50.974;4.968;2023-03-26T16:43:15;7.80;99.90
9975;DHT22;5028;50.974;4.968;2023-03-26T16:45:58;7.70;99.90
9975;DHT22;5028;50.974;4.968;2023-03-26T16:48:36;7.70;99.90
9975;DHT22;5028;50.974;4.968;2023-03-26T16:51:19;7.60;99.90
9975;DHT22;5028;50.974;4.968;2023-03-26T16:53:56;7.60;99.90
9975;DHT22;5028;50.974;4.968;2023-03-26T16:56:42;7.70;99.90
9975;DHT22;5028;50.974;4.968;2023-03-26T16:59:41;7.70;99.90
9975;DHT22;5028;50.974;4.968;2023-03-26T17:02:34;7.70;99.90
9975;DHT22;5028;50.974;4.968;2023-03-26T17:05:18;7.70;99.90
9975;DHT22;5028;50.974;4.968;2023-03-26T17:08:06;7.70;99.90
9975;DHT22;5028;50.974;4.968;2023-03-26T17:10:43;7.70;99.90
9975;DHT22;5028;50.974;4.968;2023-03-26T17:13:23;7.70;99.90
9975;DHT22;5028;50.974;4.968;2023-03-26T17:16:00;7.70;99.90
9975;DHT22;5028;50.974;4.968;2023-03-26T17:18:44;7.70;99.90
9975;DHT22;5028;50.974;4.968;2023-03-26T17:21:24;7.70;99.90
9975;DHT22;5028;50.974;4.968;2023-03-26T17:24:21;7.70;99.90
9975;DHT22;5028;50.974;4.968;2023-03-26T17:26:59;7.70;99.90
9975;DHT22;5028;50.974;4.968;2023-03-26T17:29:55;7.70;99.90
9975;DHT22;5028;50.974;4.968;2023-03-26T17:32:54;7.70;99.90
9975;DHT22;5028;50.974;4.968;2023-03-26T17:35:39;7.70;99.90
9975;DHT22;5028;50.974;4.968;2023-03-26T17:41:49;7.70;99.90
9975;DHT22;5028;50.974;4.968;2023-03-26T17:44:44;7.70;99.90
9975;DHT22;5028;50.974;4.968;2023-03-26T17:47:35;7.60;99.90
9975;DHT22;5028;50.974;4.968;2023-03-26T17:50:18;7.70;99.90
9975;DHT22;5028;50.974;4.968;2023-03-26T17:52:54;7.60;99.90
9975;DHT22;5028;50.974;4.968;2023-03-26T17:55:33;7.60;99.90
9975;DHT22;5028;50.974;4.968;2023-03-26T17:58:04;7.60;99.90
9975;DHT22;5028;50.974;4.968;2023-03-26T18:00:44;7.50;99.90
9975;DHT22;5028;50.974;4.968;2023-03-26T18:03:19;7.50;99.90
9975;DHT22;5028;50.974;4.968;2023-03-26T18:06:05;7.50;99.90
9975;DHT22;5028;50.974;4.968;2023-03-26T18:09:02;7.40;99.90
9975;DHT22;5028;50.974;4.968;2023-03-26T18:12:02;7.40;99.90
9975;DHT22;5028;50.974;4.968;2023-03-26T18:15:12;7.30;99.90
9975;DHT22;5028;50.974;4.968;2023-03-26T18:18:05;7.30;99.90
9975;DHT22;5028;50.974;4.968;2023-03-26T18:20:37;7.30;99.90
9975;DHT22;5028;50.974;4.968;2023-03-26T18:23:21;7.20;99.90
9975;DHT22;5028;50.974;4.968;2023-03-26T18:25:55;7.20;99.90
9975;DHT22;5028;50.974;4.968;2023-03-26T18:28:34;7.20;99.90
9975;DHT22;5028;50.974;4.968;2023-03-26T18:31:12;7.10;99.90
9975;DHT22;5028;50.974;4.968;2023-03-26T18:33:56;7.10;99.90
9975;DHT22;5028;50.974;4.968;2023-03-26T18:36:31;7.10;99.90
9975;DHT22;5028;50.974;4.968;2023-03-26T18:39:02;7.00;99.90
9975;DHT22;5028;50.974;4.968;2023-03-26T18:41:40;7.00;99.90
9975;DHT22;5028;50.974;4.968;2023-03-26T18:44:13;7.00;99.90
9975;DHT22;5028;50.974;4.968;2023-03-26T18:46:51;6.90;99.90
9975;DHT22;5028;50.974;4.968;2023-03-26T18:49:25;6.90;99.90
9975;DHT22;5028;50.974;4.968;2023-03-26T18:52:03;6.90;99.90
9975;DHT22;5028;50.974;4.968;2023-03-26T18:54:38;6.90;99.90
9975;DHT22;5028;50.974;4.968;2023-03-26T18:57:09;6.90;99.90
9975;DHT22;5028;50.974;4.968;2023-03-26T18:59:42;6.90;99.90